sensor_id;sensor_type;location;lat;lon;timestamp;temperature;humidity
3684;DHT22;1858;48.716;9.648;2023-04-15T00:02:12;5.90;1.00
3684;DHT22;1858;48.716;9.648;2023-04-15T00:04:32;5.80;1.00
3684;DHT22;1858;48.716;9.648;2023-04-15T00:07:02;5.70;1.00
3684;DHT22;1858;48.716;9.648;2023-04-15T00:09:31;5.70;1.00
3684;DHT22;1858;48.716;9.648;2023-04-15T00:11:59;5.80;2.30
3684;DHT22;1858;48.716;9.648;2023-04-15T00:14:28;5.80;12.10
3684;DHT22;1858;48.716;9.648;2023-04-15T00:16:57;5.80;12.70
3684;DHT22;1858;48.716;9.648;2023-04-15T00:19:25;5.90;14.60
3684;DHT22;1858;48.716;9.648;2023-04-15T00:21:53;5.90;15.20
3684;DHT22;1858;48.716;9.648;2023-04-15T00:24:22;6.00;25.00
3684;DHT22;1858;48.716;9.648;2023-04-15T00:26:50;6.00;9.60
3684;DHT22;1858;48.716;9.648;2023-04-15T00:29:19;5.90;1.10
3684;DHT22;1858;48.716;9.648;2023-04-15T00:31:48;5.90;7.20
3684;DHT22;1858;48.716;9.648;2023-04-15T00:34:16;5.90;5.50
3684;DHT22;1858;48.716;9.648;2023-04-15T00:36:45;5.90;9.70
3684;DHT22;1858;48.716;9.648;2023-04-15T00:39:14;5.90;5.90
3684;DHT22;1858;48.716;9.648;2023-04-15T00:41:44;5.90;3.30
3684;DHT22;1858;48.716;9.648;2023-04-15T00:44:13;5.90;5.50
3684;DHT22;1858;48.716;9.648;2023-04-15T00:46:42;5.90;1.00
3684;DHT22;1858;48.716;9.648;2023-04-15T00:49:11;5.80;1.00
3684;DHT22;1858;48.716;9.648;2023-04-15T00:51:40;5.90;1.00
3684;DHT22;1858;48.716;9.648;2023-04-15T00:54:08;5.80;1.00
3684;DHT22;1858;48.716;9.648;2023-04-15T00:56:37;5.90;1.00
3684;DHT22;1858;48.716;9.648;2023-04-15T00:59:06;5.90;1.00
3684;DHT22;1858;48.716;9.648;2023-04-15T01:01:36;5.90;1.00
3684;DHT22;1858;48.716;9.648;2023-04-15T01:04:04;5.80;1.00
3684;DHT22;1858;48.716;9.648;2023-04-15T01:06:33;5.80;1.00
3684;DHT22;1858;48.716;9.648;2023-04-15T01:09:02;5.80;1.00
3684;DHT22;1858;48.716;9.648;2023-04-15T01:11:31;5.80;1.00
3684;DHT22;1858;48.716;9.648;2023-04-15T01:14:03;5.80;1.00
3684;DHT22;1858;48.716;9.648;2023-04-15T01:16:32;5.70;1.00
3684;DHT22;1858;48.716;9.648;2023-04-15T01:19:00;5.70;1.00
3684;DHT22;1858;48.716;9.648;2023-04-15T01:21:29;5.70;1.00
3684;DHT22;1858;48.716;9.648;2023-04-15T01:23:58;5.60;3.50
3684;DHT22;1858;48.716;9.648;2023-04-15T01:26:26;5.60;4.70
3684;DHT22;1858;48.716;9.648;2023-04-15T01:28:55;5.70;15.80
3684;DHT22;1858;48.716;9.648;2023-04-15T01:31:23;5.70;10.50
3684;DHT22;1858;48.716;9.648;2023-04-15T01:33:52;5.70;1.00
3684;DHT22;1858;48.716;9.648;2023-04-15T01:36:20;5.70;1.00
3684;DHT22;1858;48.716;9.648;2023-04-15T01:38:50;5.70;3.80
3684;DHT22;1858;48.716;9.648;2023-04-15T01:41:28;5.70;7.30
3684;DHT22;1858;48.716;9.648;2023-04-15T01:43:53;5.60;13.30
3684;DHT22;1858;48.716;9.648;2023-04-15T01:46:22;5.60;16.70
3684;DHT22;1858;48.716;9.648;2023-04-15T01:48:50;5.60;15.70
3684;DHT22;1858;48.716;9.648;2023-04-15T01:51:19;5.50;17.20
3684;DHT22;1858;48.716;9.648;2023-04-15T01:53:48;5.50;17.90
3684;DHT22;1858;48.716;9.648;2023-04-15T01:56:16;5.50;19.50
3684;DHT22;1858;48.716;9.648;2023-04-15T01:58:45;5.40;24.00
3684;DHT22;1858;48.716;9.648;2023-04-15T02:01:14;5.30;21.00
3684;DHT22;1858;48.716;9.648;2023-04-15T02:03:43;5.40;32.30
3684;DHT22;1858;48.716;9.648;2023-04-15T02:06:11;5.40;29.80
3684;DHT22;1858;48.716;9.648;2023-04-15T02:08:40;5.30;28.10
3684;DHT22;1858;48.716;9.648;2023-04-15T02:11:08;5.30;20.90
3684;DHT22;1858;48.716;9.648;2023-04-15T02:13:37;5.10;19.60
3684;DHT22;1858;48.716;9.648;2023-04-15T02:16:16;5.10;32.60
3684;DHT22;1858;48.716;9.648;2023-04-15T02:18:45;5.00;39.10
3684;DHT22;1858;48.716;9.648;2023-04-15T02:21:14;4.90;36.80
3684;DHT22;1858;48.716;9.648;2023-04-15T02:23:42;4.90;41.20
3684;DHT22;1858;48.716;9.648;2023-04-15T02:26:11;4.80;48.60
3684;DHT22;1858;48.716;9.648;2023-04-15T02:28:40;4.90;69.80
3684;DHT22;1858;48.716;9.648;2023-04-15T02:31:08;4.80;62.10
3684;DHT22;1858;48.716;9.648;2023-04-15T02:33:37;4.80;70.10
3684;DHT22;1858;48.716;9.648;2023-04-15T02:36:05;4.80;55.80
3684;DHT22;1858;48.716;9.648;2023-04-15T02:38:34;4.80;69.30
3684;DHT22;1858;48.716;9.648;2023-04-15T02:41:04;4.80;77.70
3684;DHT22;1858;48.716;9.648;2023-04-15T02:43:32;4.70;76.60
3684;DHT22;1858;48.716;9.648;2023-04-15T02:46:01;4.70;63.90
3684;DHT22;1858;48.716;9.648;2023-04-15T02:48:29;4.70;91.40
3684;DHT22;1858;48.716;9.648;2023-04-15T02:51:14;4.70;99.90
3684;DHT22;1858;48.716;9.648;2023-04-15T02:53:43;4.70;95.30
3684;DHT22;1858;48.716;9.648;2023-04-15T02:56:11;4.70;92.80
3684;DHT22;1858;48.716;9.648;2023-04-15T02:58:42;4.70;99.90
3684;DHT22;1858;48.716;9.648;2023-04-15T03:01:11;4.60;99.90
3684;DHT22;1858;48.716;9.648;2023-04-15T03:03:40;4.60;99.90
3684;DHT22;1858;48.716;9.648;2023-04-15T03:06:08;4.60;99.90
3684;DHT22;1858;48.716;9.648;2023-04-15T03:08:37;4.60;99.90
3684;DHT22;1858;48.716;9.648;2023-04-15T03:11:05;4.60;99.90
3684;DHT22;1858;48.716;9.648;2023-04-15T03:13:34;4.60;99.90
3684;DHT22;1858;48.716;9.648;2023-04-15T03:16:02;4.50;99.90
3684;DHT22;1858;48.716;9.648;2023-04-15T03:18:31;4.60;99.90
3684;DHT22;1858;48.716;9.648;2023-04-15T03:21:00;4.60;99.90
3684;DHT22;1858;48.716;9.648;2023-04-15T03:23:30;4.60;99.90
3684;DHT22;1858;48.716;9.648;2023-04-15T03:26:01;4.60;99.90
3684;DHT22;1858;48.716;9.648;2023-04-15T03:28:30;4.70;99.90
3684;DHT22;1858;48.716;9.648;2023-04-15T03:30:59;4.60;99.90
3684;DHT22;1858;48.716;9.648;2023-04-15T03:33:27;4.60;99.90
3684;DHT22;1858;48.716;9.648;2023-04-15T03:35:55;4.70;99.90
3684;DHT22;1858;48.716;9.648;2023-04-15T03:38:24;4.80;99.90
3684;DHT22;1858;48.716;9.648;2023-04-15T03:40:53;4.80;99.90
3684;DHT22;1858;48.716;9.648;2023-04-15T03:43:22;4.70;99.90
3684;DHT22;1858;48.716;9.648;2023-04-15T03:45:50;4.70;99.90
3684;DHT22;1858;48.716;9.648;2023-04-15T03:48:18;4.60;99.90
3684;DHT22;1858;48.716;9.648;2023-04-15T03:50:47;4.60;99.90
3684;DHT22;1858;48.716;9.648;2023-04-15T03:53:15;4.60;99.90
3684;DHT22;1858;48.716;9.648;2023-04-15T03:55:44;4.60;99.90
3684;DHT22;1858;48.716;9.648;2023-04-15T03:58:13;4.70;99.90
3684;DHT22;1858;48.716;9.648;2023-04-15T04:00:41;4.60;99.90
3684;DHT22;1858;48.716;9.648;2023-04-15T04:03:09;4.60;99.90
3684;DHT22;1858;48.716;9.648;2023-04-15T04:05:38;4.60;99.90
3684;DHT22;1858;48.716;9.648;2023-04-15T04:08:07;4.60;99.90
3684;DHT22;1858;48.716;9.648;2023-04-15T04:10:36;4.50;99.90
3684;DHT22;1858;48.716;9.648;2023-04-15T04:13:04;4.50;99.90
3684;DHT22;1858;48.716;9.648;2023-04-15T04:15:33;4.50;99.90
3684;DHT22;1858;48.716;9.648;2023-04-15T04:18:02;4.50;99.90
3684;DHT22;1858;48.716;9.648;2023-04-15T04:20:30;4.50;99.90
3684;DHT22;1858;48.716;9.648;2023-04-15T04:23:02;4.50;99.90
3684;DHT22;1858;48.716;9.648;2023-04-15T04:25:33;4.40;99.90
3684;DHT22;1858;48.716;9.648;2023-04-15T04:28:01;4.40;99.90
3684;DHT22;1858;48.716;9.648;2023-04-15T04:30:30;4.40;99.90
3684;DHT22;1858;48.716;9.648;2023-04-15T04:32:59;4.40;99.90
3684;DHT22;1858;48.716;9.648;2023-04-15T04:35:31;4.30;99.90
3684;DHT22;1858;48.716;9.648;2023-04-15T04:37:59;4.30;99.90
3684;DHT22;1858;48.716;9.648;2023-04-15T04:40:30;4.30;99.90
3684;DHT22;1858;48.716;9.648;2023-04-15T04:42:59;4.20;99.90
3684;DHT22;1858;48.716;9.648;2023-04-15T04:45:28;4.20;99.90
3684;DHT22;1858;48.716;9.648;2023-04-15T04:47:56;4.20;99.90
3684;DHT22;1858;48.716;9.648;2023-04-15T04:50:25;4.20;99.90
3684;DHT22;1858;48.716;9.648;2023-04-15T04:52:56;4.20;99.90
3684;DHT22;1858;48.716;9.648;2023-04-15T04:55:28;4.20;99.90
3684;DHT22;1858;48.716;9.648;2023-04-15T04:58:06;4.20;99.90
3684;DHT22;1858;48.716;9.648;2023-04-15T05:00:39;4.20;99.90
3684;DHT22;1858;48.716;9.648;2023-04-15T05:03:11;4.30;99.90
3684;DHT22;1858;48.716;9.648;2023-04-15T05:05:43;4.20;99.90
3684;DHT22;1858;48.716;9.648;2023-04-15T05:08:14;4.10;99.90
3684;DHT22;1858;48.716;9.648;2023-04-15T05:10:45;4.10;99.90
3684;DHT22;1858;48.716;9.648;2023-04-15T05:13:14;4.20;99.90
3684;DHT22;1858;48.716;9.648;2023-04-15T05:15:53;4.20;99.90
3684;DHT22;1858;48.716;9.648;2023-04-15T05:18:22;4.20;99.90
3684;DHT22;1858;48.716;9.648;2023-04-15T05:20:55;4.20;99.90
3684;DHT22;1858;48.716;9.648;2023-04-15T05:23:25;4.30;99.90
3684;DHT22;1858;48.716;9.648;2023-04-15T05:25:55;4.30;99.90
3684;DHT22;1858;48.716;9.648;2023-04-15T05:28:26;4.30;99.90
3684;DHT22;1858;48.716;9.648;2023-04-15T05:31:04;4.40;99.90
3684;DHT22;1858;48.716;9.648;2023-04-15T05:33:38;4.50;99.90
3684;DHT22;1858;48.716;9.648;2023-04-15T05:36:07;4.50;99.90
3684;DHT22;1858;48.716;9.648;2023-04-15T05:38:46;4.50;99.90
3684;DHT22;1858;48.716;9.648;2023-04-15T05:41:08;4.60;99.90
3684;DHT22;1858;48.716;9.648;2023-04-15T05:43:37;4.70;99.90
3684;DHT22;1858;48.716;9.648;2023-04-15T05:46:06;4.90;99.90
3684;DHT22;1858;48.716;9.648;2023-04-15T05:48:34;5.00;99.90
3684;DHT22;1858;48.716;9.648;2023-04-15T05:51:03;5.20;99.90
3684;DHT22;1858;48.716;9.648;2023-04-15T05:53:35;5.50;99.90
3684;DHT22;1858;48.716;9.648;2023-04-15T05:56:13;5.70;99.90
3684;DHT22;1858;48.716;9.648;2023-04-15T05:58:44;5.90;99.90
3684;DHT22;1858;48.716;9.648;2023-04-15T06:01:17;6.20;99.50
3684;DHT22;1858;48.716;9.648;2023-04-15T06:06:27;6.60;60.40
3684;DHT22;1858;48.716;9.648;2023-04-15T06:08:56;6.90;20.70
3684;DHT22;1858;48.716;9.648;2023-04-15T06:11:25;7.20;1.00
3684;DHT22;1858;48.716;9.648;2023-04-15T06:14:00;7.50;1.00
3684;DHT22;1858;48.716;9.648;2023-04-15T06:16:28;7.70;1.00
3684;DHT22;1858;48.716;9.648;2023-04-15T06:19:02;8.00;1.00
3684;DHT22;1858;48.716;9.648;2023-04-15T06:21:29;8.40;1.00
3684;DHT22;1858;48.716;9.648;2023-04-15T06:23:59;8.80;1.00
3684;DHT22;1858;48.716;9.648;2023-04-15T06:26:32;9.20;1.00
3684;DHT22;1858;48.716;9.648;2023-04-15T06:29:01;9.70;1.00
3684;DHT22;1858;48.716;9.648;2023-04-15T06:31:31;10.10;1.00
3684;DHT22;1858;48.716;9.648;2023-04-15T06:34:00;10.50;1.00
3684;DHT22;1858;48.716;9.648;2023-04-15T06:36:28;10.80;1.00
3684;DHT22;1858;48.716;9.648;2023-04-15T06:38:57;11.10;1.00
3684;DHT22;1858;48.716;9.648;2023-04-15T06:41:26;11.30;1.00
3684;DHT22;1858;48.716;9.648;2023-04-15T06:43:57;11.40;99.90
3684;DHT22;1858;48.716;9.648;2023-04-15T06:46:30;11.50;99.90
3684;DHT22;1858;48.716;9.648;2023-04-15T06:48:59;11.60;99.90
3684;DHT22;1858;48.716;9.648;2023-04-15T06:51:28;11.70;99.90
3684;DHT22;1858;48.716;9.648;2023-04-15T06:54:00;11.80;99.90
3684;DHT22;1858;48.716;9.648;2023-04-15T06:56:33;11.80;99.90
3684;DHT22;1858;48.716;9.648;2023-04-15T06:59:02;11.60;99.90
3684;DHT22;1858;48.716;9.648;2023-04-15T07:01:35;11.60;99.90
3684;DHT22;1858;48.716;9.648;2023-04-15T07:04:04;11.60;99.90
3684;DHT22;1858;48.716;9.648;2023-04-15T07:06:34;11.60;99.90
3684;DHT22;1858;48.716;9.648;2023-04-15T07:09:03;11.80;99.90
3684;DHT22;1858;48.716;9.648;2023-04-15T07:11:32;12.20;99.90
3684;DHT22;1858;48.716;9.648;2023-04-15T07:14:01;12.40;99.90
3684;DHT22;1858;48.716;9.648;2023-04-15T07:16:33;12.60;99.90
3684;DHT22;1858;48.716;9.648;2023-04-15T07:19:02;12.90;99.90
3684;DHT22;1858;48.716;9.648;2023-04-15T07:21:31;13.40;99.90
3684;DHT22;1858;48.716;9.648;2023-04-15T07:24:06;13.90;99.90
3684;DHT22;1858;48.716;9.648;2023-04-15T07:26:33;14.40;99.90
3684;DHT22;1858;48.716;9.648;2023-04-15T07:29:02;14.90;99.90
3684;DHT22;1858;48.716;9.648;2023-04-15T07:31:31;15.30;99.90
3684;DHT22;1858;48.716;9.648;2023-04-15T07:34:00;15.30;99.90
3684;DHT22;1858;48.716;9.648;2023-04-15T07:36:29;15.50;99.90
3684;DHT22;1858;48.716;9.648;2023-04-15T07:39:02;15.70;99.90
3684;DHT22;1858;48.716;9.648;2023-04-15T07:41:40;16.00;99.90
3684;DHT22;1858;48.716;9.648;2023-04-15T07:44:12;16.40;99.90
3684;DHT22;1858;48.716;9.648;2023-04-15T07:46:50;16.50;99.90
3684;DHT22;1858;48.716;9.648;2023-04-15T07:49:23;16.80;99.90
3684;DHT22;1858;48.716;9.648;2023-04-15T07:51:55;17.60;99.90
3684;DHT22;1858;48.716;9.648;2023-04-15T07:54:25;18.90;99.90
3684;DHT22;1858;48.716;9.648;2023-04-15T07:56:56;20.20;99.90
3684;DHT22;1858;48.716;9.648;2023-04-15T07:59:34;21.30;99.90
3684;DHT22;1858;48.716;9.648;2023-04-15T08:02:00;22.70;99.90
3684;DHT22;1858;48.716;9.648;2023-04-15T08:04:30;23.30;87.80
3684;DHT22;1858;48.716;9.648;2023-04-15T08:07:02;23.90;70.80
3684;DHT22;1858;48.716;9.648;2023-04-15T08:09:31;24.40;58.70
3684;DHT22;1858;48.716;9.648;2023-04-15T08:12:03;24.70;40.10
3684;DHT22;1858;48.716;9.648;2023-04-15T08:14:38;24.90;12.60
3684;DHT22;1858;48.716;9.648;2023-04-15T08:17:07;24.80;14.20
3684;DHT22;1858;48.716;9.648;2023-04-15T08:19:42;24.80;1.00
3684;DHT22;1858;48.716;9.648;2023-04-15T08:22:11;25.00;1.00
3684;DHT22;1858;48.716;9.648;2023-04-15T08:24:41;25.00;1.00
3684;DHT22;1858;48.716;9.648;2023-04-15T08:27:10;25.30;1.00
3684;DHT22;1858;48.716;9.648;2023-04-15T08:29:41;25.30;1.00
3684;DHT22;1858;48.716;9.648;2023-04-15T08:32:11;25.70;1.00
3684;DHT22;1858;48.716;9.648;2023-04-15T08:34:45;26.20;1.00
3684;DHT22;1858;48.716;9.648;2023-04-15T08:37:19;26.30;1.00
3684;DHT22;1858;48.716;9.648;2023-04-15T08:39:45;27.00;1.00
3684;DHT22;1858;48.716;9.648;2023-04-15T08:42:18;26.80;1.00
3684;DHT22;1858;48.716;9.648;2023-04-15T08:44:57;27.30;1.00
3684;DHT22;1858;48.716;9.648;2023-04-15T08:47:30;27.60;1.00
3684;DHT22;1858;48.716;9.648;2023-04-15T08:50:03;28.00;1.00
3684;DHT22;1858;48.716;9.648;2023-04-15T08:52:35;28.50;1.00
3684;DHT22;1858;48.716;9.648;2023-04-15T08:55:05;28.90;1.00
3684;DHT22;1858;48.716;9.648;2023-04-15T08:57:38;29.10;1.00
3684;DHT22;1858;48.716;9.648;2023-04-15T09:00:11;29.20;1.00
3684;DHT22;1858;48.716;9.648;2023-04-15T09:02:40;29.30;1.00
3684;DHT22;1858;48.716;9.648;2023-04-15T09:05:10;29.40;1.00
3684;DHT22;1858;48.716;9.648;2023-04-15T09:07:40;28.90;1.00
3684;DHT22;1858;48.716;9.648;2023-04-15T09:10:10;28.10;1.00
3684;DHT22;1858;48.716;9.648;2023-04-15T09:12:39;27.80;1.00
3684;DHT22;1858;48.716;9.648;2023-04-15T09:15:10;27.60;1.00
3684;DHT22;1858;48.716;9.648;2023-04-15T09:17:48;27.10;1.00
3684;DHT22;1858;48.716;9.648;2023-04-15T09:20:15;26.40;1.00
3684;DHT22;1858;48.716;9.648;2023-04-15T09:22:47;25.70;1.00
3684;DHT22;1858;48.716;9.648;2023-04-15T09:25:24;25.30;1.00
3684;DHT22;1858;48.716;9.648;2023-04-15T09:27:59;24.90;1.00
3684;DHT22;1858;48.716;9.648;2023-04-15T09:30:31;24.60;1.00
3684;DHT22;1858;48.716;9.648;2023-04-15T09:33:03;24.90;1.00
3684;DHT22;1858;48.716;9.648;2023-04-15T09:35:38;25.10;1.00
3684;DHT22;1858;48.716;9.648;2023-04-15T09:38:08;25.10;1.00
3684;DHT22;1858;48.716;9.648;2023-04-15T09:40:39;25.00;1.00
3684;DHT22;1858;48.716;9.648;2023-04-15T09:43:09;25.10;1.00
3684;DHT22;1858;48.716;9.648;2023-04-15T09:45:50;25.40;1.00
3684;DHT22;1858;48.716;9.648;2023-04-15T09:48:21;25.60;1.00
3684;DHT22;1858;48.716;9.648;2023-04-15T09:50:52;25.80;1.00
3684;DHT22;1858;48.716;9.648;2023-04-15T09:53:27;26.20;1.00
3684;DHT22;1858;48.716;9.648;2023-04-15T09:55:58;27.00;1.00
3684;DHT22;1858;48.716;9.648;2023-04-15T09:58:32;27.30;1.00
3684;DHT22;1858;48.716;9.648;2023-04-15T10:01:03;27.40;1.00
3684;DHT22;1858;48.716;9.648;2023-04-15T10:03:34;27.10;1.00
3684;DHT22;1858;48.716;9.648;2023-04-15T10:06:10;27.00;1.00
3684;DHT22;1858;48.716;9.648;2023-04-15T10:08:44;26.50;1.00
3684;DHT22;1858;48.716;9.648;2023-04-15T10:11:14;25.80;1.00
3684;DHT22;1858;48.716;9.648;2023-04-15T10:13:43;25.00;1.00
3684;DHT22;1858;48.716;9.648;2023-04-15T10:16:14;24.20;1.00
3684;DHT22;1858;48.716;9.648;2023-04-15T10:18:46;23.40;1.00
3684;DHT22;1858;48.716;9.648;2023-04-15T10:21:19;22.90;1.00
3684;DHT22;1858;48.716;9.648;2023-04-15T10:23:51;22.70;2.90
3684;DHT22;1858;48.716;9.648;2023-04-15T10:26:23;22.20;1.00
3684;DHT22;1858;48.716;9.648;2023-04-15T10:28:53;22.10;8.20
3684;DHT22;1858;48.716;9.648;2023-04-15T10:31:24;22.00;7.00
3684;DHT22;1858;48.716;9.648;2023-04-15T10:33:53;21.60;7.70
3684;DHT22;1858;48.716;9.648;2023-04-15T10:36:23;21.70;12.10
3684;DHT22;1858;48.716;9.648;2023-04-15T10:39:00;21.60;7.00
3684;DHT22;1858;48.716;9.648;2023-04-15T10:41:27;21.40;11.80
3684;DHT22;1858;48.716;9.648;2023-04-15T10:44:05;21.40;13.90
3684;DHT22;1858;48.716;9.648;2023-04-15T10:46:42;20.50;10.40
3684;DHT22;1858;48.716;9.648;2023-04-15T10:49:15;20.60;19.60
3684;DHT22;1858;48.716;9.648;2023-04-15T10:51:52;20.70;14.90
3684;DHT22;1858;48.716;9.648;2023-04-15T11:00:08;20.70;12.70
3684;DHT22;1858;48.716;9.648;2023-04-15T11:02:54;20.20;21.40
3684;DHT22;1858;48.716;9.648;2023-04-15T11:05:22;20.10;27.90
3684;DHT22;1858;48.716;9.648;2023-04-15T11:07:58;19.80;22.00
3684;DHT22;1858;48.716;9.648;2023-04-15T11:13:03;19.70;68.30
3684;DHT22;1858;48.716;9.648;2023-04-15T11:15:38;19.60;64.70
3684;DHT22;1858;48.716;9.648;2023-04-15T11:18:14;19.50;60.70
3684;DHT22;1858;48.716;9.648;2023-04-15T11:23:39;19.00;88.80
3684;DHT22;1858;48.716;9.648;2023-04-15T11:26:10;19.10;75.20
3684;DHT22;1858;48.716;9.648;2023-04-15T11:28:42;19.10;68.10
3684;DHT22;1858;48.716;9.648;2023-04-15T11:31:18;19.10;82.10
3684;DHT22;1858;48.716;9.648;2023-04-15T11:34:02;18.70;80.40
3684;DHT22;1858;48.716;9.648;2023-04-15T11:36:31;18.30;81.30
3684;DHT22;1858;48.716;9.648;2023-04-15T11:38:59;18.10;88.10
3684;DHT22;1858;48.716;9.648;2023-04-15T11:41:28;18.10;89.30
3684;DHT22;1858;48.716;9.648;2023-04-15T11:43:56;18.00;66.50
3684;DHT22;1858;48.716;9.648;2023-04-15T11:46:29;17.80;64.50
3684;DHT22;1858;48.716;9.648;2023-04-15T11:49:10;17.70;67.50
3684;DHT22;1858;48.716;9.648;2023-04-15T11:51:41;17.70;66.90
3684;DHT22;1858;48.716;9.648;2023-04-15T11:54:17;17.60;71.50
3684;DHT22;1858;48.716;9.648;2023-04-15T11:56:50;17.80;79.00
3684;DHT22;1858;48.716;9.648;2023-04-15T11:59:20;17.90;89.30
3684;DHT22;1858;48.716;9.648;2023-04-15T12:01:50;17.90;91.00
3684;DHT22;1858;48.716;9.648;2023-04-15T12:04:20;18.00;79.60
3684;DHT22;1858;48.716;9.648;2023-04-15T12:06:52;17.60;83.80
3684;DHT22;1858;48.716;9.648;2023-04-15T12:09:21;17.30;93.00
3684;DHT22;1858;48.716;9.648;2023-04-15T12:11:50;17.30;99.90
3684;DHT22;1858;48.716;9.648;2023-04-15T12:14:29;17.60;99.30
3684;DHT22;1858;48.716;9.648;2023-04-15T12:17:02;17.60;92.20
3684;DHT22;1858;48.716;9.648;2023-04-15T12:19:36;17.40;88.80
3684;DHT22;1858;48.716;9.648;2023-04-15T12:22:10;17.40;92.60
3684;DHT22;1858;48.716;9.648;2023-04-15T12:24:45;17.50;93.60
3684;DHT22;1858;48.716;9.648;2023-04-15T12:27:16;17.50;91.20
3684;DHT22;1858;48.716;9.648;2023-04-15T12:29:44;17.30;83.70
3684;DHT22;1858;48.716;9.648;2023-04-15T12:32:18;16.90;85.20
3684;DHT22;1858;48.716;9.648;2023-04-15T12:34:51;16.70;89.80
3684;DHT22;1858;48.716;9.648;2023-04-15T12:37:20;16.40;99.90
3684;DHT22;1858;48.716;9.648;2023-04-15T12:39:50;16.30;99.90
3684;DHT22;1858;48.716;9.648;2023-04-15T12:42:20;16.10;99.90
3684;DHT22;1858;48.716;9.648;2023-04-15T12:44:51;16.10;99.90
3684;DHT22;1858;48.716;9.648;2023-04-15T12:47:21;15.90;99.90
3684;DHT22;1858;48.716;9.648;2023-04-15T12:49:49;16.00;99.40
3684;DHT22;1858;48.716;9.648;2023-04-15T12:52:18;15.80;97.80
3684;DHT22;1858;48.716;9.648;2023-04-15T12:54:52;15.50;99.90
3684;DHT22;1858;48.716;9.648;2023-04-15T12:57:20;15.50;99.90
3684;DHT22;1858;48.716;9.648;2023-04-15T12:59:54;15.60;99.90
3684;DHT22;1858;48.716;9.648;2023-04-15T13:02:22;15.60;99.90
3684;DHT22;1858;48.716;9.648;2023-04-15T13:04:53;15.50;99.90
3684;DHT22;1858;48.716;9.648;2023-04-15T13:07:22;15.40;99.90
3684;DHT22;1858;48.716;9.648;2023-04-15T13:09:50;15.10;99.90
3684;DHT22;1858;48.716;9.648;2023-04-15T13:12:19;14.70;99.90
3684;DHT22;1858;48.716;9.648;2023-04-15T13:14:47;14.30;99.90
3684;DHT22;1858;48.716;9.648;2023-04-15T13:17:16;14.00;99.90
3684;DHT22;1858;48.716;9.648;2023-04-15T13:19:46;13.80;99.90
3684;DHT22;1858;48.716;9.648;2023-04-15T13:22:15;13.70;99.90
3684;DHT22;1858;48.716;9.648;2023-04-15T13:24:44;13.60;99.90
3684;DHT22;1858;48.716;9.648;2023-04-15T13:27:12;13.60;99.90
3684;DHT22;1858;48.716;9.648;2023-04-15T13:29:43;13.70;99.90
3684;DHT22;1858;48.716;9.648;2023-04-15T13:32:12;13.90;99.90
3684;DHT22;1858;48.716;9.648;2023-04-15T13:34:40;14.00;99.90
3684;DHT22;1858;48.716;9.648;2023-04-15T13:37:09;14.00;99.90
3684;DHT22;1858;48.716;9.648;2023-04-15T13:39:38;14.00;99.90
3684;DHT22;1858;48.716;9.648;2023-04-15T13:42:14;13.90;99.90
3684;DHT22;1858;48.716;9.648;2023-04-15T13:44:39;13.80;99.90
3684;DHT22;1858;48.716;9.648;2023-04-15T13:47:07;13.60;99.90
3684;DHT22;1858;48.716;9.648;2023-04-15T13:49:39;13.30;99.90
3684;DHT22;1858;48.716;9.648;2023-04-15T13:52:08;13.10;99.90
3684;DHT22;1858;48.716;9.648;2023-04-15T13:54:37;13.00;99.90
3684;DHT22;1858;48.716;9.648;2023-04-15T13:57:06;13.00;99.90
3684;DHT22;1858;48.716;9.648;2023-04-15T13:59:37;13.00;99.90
3684;DHT22;1858;48.716;9.648;2023-04-15T14:02:15;13.00;99.90
3684;DHT22;1858;48.716;9.648;2023-04-15T14:04:42;13.00;99.90
3684;DHT22;1858;48.716;9.648;2023-04-15T14:07:10;13.10;99.90
3684;DHT22;1858;48.716;9.648;2023-04-15T14:09:41;12.80;99.90
3684;DHT22;1858;48.716;9.648;2023-04-15T14:12:11;12.70;99.90
3684;DHT22;1858;48.716;9.648;2023-04-15T14:14:43;12.70;99.90
3684;DHT22;1858;48.716;9.648;2023-04-15T14:17:12;12.80;99.90
3684;DHT22;1858;48.716;9.648;2023-04-15T14:19:51;12.90;99.90
3684;DHT22;1858;48.716;9.648;2023-04-15T14:22:13;13.00;99.90
3684;DHT22;1858;48.716;9.648;2023-04-15T14:24:42;13.10;99.90
3684;DHT22;1858;48.716;9.648;2023-04-15T14:27:19;13.30;99.90
3684;DHT22;1858;48.716;9.648;2023-04-15T14:29:57;13.60;99.90
3684;DHT22;1858;48.716;9.648;2023-04-15T14:32:26;13.80;99.90
3684;DHT22;1858;48.716;9.648;2023-04-15T14:34:56;14.00;99.90
3684;DHT22;1858;48.716;9.648;2023-04-15T14:37:29;14.10;99.90
3684;DHT22;1858;48.716;9.648;2023-04-15T14:39:59;14.10;99.90
3684;DHT22;1858;48.716;9.648;2023-04-15T14:42:30;14.20;99.90
3684;DHT22;1858;48.716;9.648;2023-04-15T14:44:59;14.00;91.30
3684;DHT22;1858;48.716;9.648;2023-04-15T14:47:30;13.90;97.10
3684;DHT22;1858;48.716;9.648;2023-04-15T14:49:59;13.70;90.70
3684;DHT22;1858;48.716;9.648;2023-04-15T14:52:33;13.50;94.00
3684;DHT22;1858;48.716;9.648;2023-04-15T14:57:41;13.30;99.90
3684;DHT22;1858;48.716;9.648;2023-04-15T15:00:10;13.20;99.90
3684;DHT22;1858;48.716;9.648;2023-04-15T15:02:40;13.10;99.90
3684;DHT22;1858;48.716;9.648;2023-04-15T15:05:09;13.10;99.90
3684;DHT22;1858;48.716;9.648;2023-04-15T15:07:39;12.70;99.90
3684;DHT22;1858;48.716;9.648;2023-04-15T15:10:08;12.70;99.90
3684;DHT22;1858;48.716;9.648;2023-04-15T15:12:38;12.70;99.90
3684;DHT22;1858;48.716;9.648;2023-04-15T15:15:07;12.50;99.90
3684;DHT22;1858;48.716;9.648;2023-04-15T15:17:36;12.60;99.90
3684;DHT22;1858;48.716;9.648;2023-04-15T15:20:12;12.70;99.90
3684;DHT22;1858;48.716;9.648;2023-04-15T15:22:40;12.60;99.90
3684;DHT22;1858;48.716;9.648;2023-04-15T15:25:09;12.60;99.90
3684;DHT22;1858;48.716;9.648;2023-04-15T15:27:42;12.50;99.90
3684;DHT22;1858;48.716;9.648;2023-04-15T15:30:17;12.50;99.90
3684;DHT22;1858;48.716;9.648;2023-04-15T15:32:42;12.50;99.90
3684;DHT22;1858;48.716;9.648;2023-04-15T15:35:13;12.50;99.90
3684;DHT22;1858;48.716;9.648;2023-04-15T15:37:45;12.40;99.90
3684;DHT22;1858;48.716;9.648;2023-04-15T15:40:15;12.40;99.90
3684;DHT22;1858;48.716;9.648;2023-04-15T15:42:44;12.40;99.90
3684;DHT22;1858;48.716;9.648;2023-04-15T15:45:17;12.50;99.90
3684;DHT22;1858;48.716;9.648;2023-04-15T15:47:46;12.50;99.90
3684;DHT22;1858;48.716;9.648;2023-04-15T15:50:15;12.40;99.90
3684;DHT22;1858;48.716;9.648;2023-04-15T15:52:44;12.30;99.90
3684;DHT22;1858;48.716;9.648;2023-04-15T15:55:14;12.30;99.90
3684;DHT22;1858;48.716;9.648;2023-04-15T15:57:53;12.40;99.90
3684;DHT22;1858;48.716;9.648;2023-04-15T16:00:22;12.30;99.90
3684;DHT22;1858;48.716;9.648;2023-04-15T16:02:58;12.30;99.90
3684;DHT22;1858;48.716;9.648;2023-04-15T16:05:30;12.10;99.90
3684;DHT22;1858;48.716;9.648;2023-04-15T16:08:01;12.00;99.90
3684;DHT22;1858;48.716;9.648;2023-04-15T16:10:39;12.00;99.90
3684;DHT22;1858;48.716;9.648;2023-04-15T16:13:08;12.00;99.90
3684;DHT22;1858;48.716;9.648;2023-04-15T16:15:39;12.00;99.90
3684;DHT22;1858;48.716;9.648;2023-04-15T16:18:12;11.90;99.90
3684;DHT22;1858;48.716;9.648;2023-04-15T16:20:41;11.80;99.90
3684;DHT22;1858;48.716;9.648;2023-04-15T16:23:14;11.70;99.90
3684;DHT22;1858;48.716;9.648;2023-04-15T16:25:52;11.80;99.90
3684;DHT22;1858;48.716;9.648;2023-04-15T16:28:30;11.80;99.90
3684;DHT22;1858;48.716;9.648;2023-04-15T16:30:59;11.80;99.90
3684;DHT22;1858;48.716;9.648;2023-04-15T16:33:28;11.70;99.90
3684;DHT22;1858;48.716;9.648;2023-04-15T16:35:57;11.70;99.90
3684;DHT22;1858;48.716;9.648;2023-04-15T16:38:26;11.60;99.90
3684;DHT22;1858;48.716;9.648;2023-04-15T16:41:00;11.60;99.90
3684;DHT22;1858;48.716;9.648;2023-04-15T16:43:30;11.50;99.90
3684;DHT22;1858;48.716;9.648;2023-04-15T16:46:08;11.40;99.90
3684;DHT22;1858;48.716;9.648;2023-04-15T16:48:40;11.40;99.90
3684;DHT22;1858;48.716;9.648;2023-04-15T16:51:21;11.20;99.90